Gargano — VSMW5 — position and weather

sailwx.info

Track history (hours):
 
Tides and Currents Weather Stations Pressure Air Temp Water Temp Dewpoint Dewpoint Depression Visibility Wind Speed Wind Dir Waves Ship Positions

Gargano

Last reported at 2018-Jan-10 01:36 UTC. Time now 2018-Jan-22 18:24 UTC.
Position N 55°27' E 006°37'.
Warning: this ship's position is 12 days out of date.

Length 72 m; draft 5.2 m.

Type: Other ship. MMSI: 235362000.

Date/timePositionNaut miles runAvg speedWind from/ knotsBaromVisibWave heightAir tempDewpointWater temp
2018-Jan-10 01:36N 55°27' E 006°37'1 9.3
2018-Jan-10 01:30N 55°27' E 006°38'5 9.1
2018-Jan-10 01:01N 55°26' E 006°46'5 9.1
2018-Jan-10 00:30N 55°26' E 006°54'5 9.3
2018-Jan-10 00:00N 55°26' E 007°02'5 9.5
2018-Jan-09 23:30N 55°26' E 007°10'5 9.7
2018-Jan-09 23:01N 55°26' E 007°19'5 9.9
2018-Jan-09 22:31N 55°26' E 007°28'510.4
2018-Jan-09 22:01N 55°26' E 007°37'510.3
2018-Jan-09 21:31N 55°26' E 007°46'510.4
2018-Jan-09 21:00N 55°26' E 007°55'510.1
2018-Jan-09 20:31N 55°25' E 008°04'510.1
2018-Jan-09 20:01N 55°25' E 008°13'4 7.5
2018-Jan-09 19:30N 55°27' E 008°18'3 5.8
2018-Jan-09 19:01N 55°29' E 008°22'3 5.4
2018-Jan-09 18:30N 55°27' E 008°26'1 0.6
2018-Jan-09 17:34N 55°28' E 008°27'0 0.0
2018-Jan-09 17:16N 55°28' E 008°27'0 0.0
2018-Jan-09 16:31N 55°28' E 008°27'0 0.0
2018-Jan-09 16:16N 55°28' E 008°27'0 0.0
2018-Jan-09 15:37N 55°28' E 008°27'0 0.0
2018-Jan-09 15:22N 55°28' E 008°27'0 0.0
2018-Jan-09 14:52N 55°28' E 008°27'0 0.0
2018-Jan-09 14:16N 55°28' E 008°27'0 0.0
2018-Jan-09 13:19N 55°28' E 008°27'0 0.0
2018-Jan-09 12:49N 55°28' E 008°27'0 0.0
2018-Jan-09 12:22N 55°28' E 008°27'0 0.0
2018-Jan-09 11:34N 55°28' E 008°27'0 0.0
2018-Jan-09 11:25N 55°28' E 008°27'0 0.0
2018-Jan-09 10:22N 55°28' E 008°27'0 0.0
2018-Jan-09 09:40N 55°28' E 008°27'0 0.0
2018-Jan-09 09:25N 55°28' E 008°27'0 0.0
2018-Jan-09 08:52N 55°28' E 008°27'0 0.0
2018-Jan-09 08:10N 55°28' E 008°27'0 0.0
2018-Jan-09 07:55N 55°28' E 008°27'0 0.0
2018-Jan-09 07:25N 55°28' E 008°27'0 0.0
2018-Jan-09 06:55N 55°28' E 008°27'0 0.0
2018-Jan-09 06:28N 55°28' E 008°27'0 0.0
2018-Jan-09 05:55N 55°28' E 008°27'0 0.0
2018-Jan-09 05:22N 55°28' E 008°27'0 0.0
2018-Jan-09 04:55N 55°28' E 008°27'0 0.0
2018-Jan-09 04:10N 55°28' E 008°27'0 0.0
2018-Jan-09 03:58N 55°28' E 008°27'0 0.0
2018-Jan-09 03:13N 55°28' E 008°27'0 0.0
2018-Jan-09 02:58N 55°28' E 008°27'0 0.0
2018-Jan-09 02:13N 55°28' E 008°27'0 0.0
2018-Jan-09 01:58N 55°28' E 008°27'0 0.0
2018-Jan-09 01:16N 55°28' E 008°27'0 0.0
2018-Jan-09 00:58N 55°28' E 008°27'0 0.0
2018-Jan-09 00:13N 55°28' E 008°27'0 0.0
2018-Jan-08 23:46N 55°28' E 008°27'0 0.0
2018-Jan-08 23:22N 55°28' E 008°27'0 0.0
2018-Jan-08 22:58N 55°28' E 008°27'0 0.0
2018-Jan-08 22:28N 55°28' E 008°27'0 0.0
2018-Jan-08 21:58N 55°28' E 008°27'0 0.0
2018-Jan-08 21:22N 55°28' E 008°27'0 0.0
2018-Jan-08 20:47N 55°28' E 008°27'0 0.0
2018-Jan-08 20:16N 55°28' E 008°27'0 0.0
2018-Jan-08 19:40N 55°28' E 008°27'0 0.0
2018-Jan-08 19:30N 55°28' E 008°27'0 0.0
2018-Jan-08 18:49N 55°28' E 008°27'0 0.0
2018-Jan-08 18:25N 55°28' E 008°27'0 0.0
2018-Jan-08 17:49N 55°28' E 008°27'0 0.0
2018-Jan-08 17:19N 55°28' E 008°27'0 0.0
2018-Jan-08 16:48N 55°28' E 008°27'0 0.0
2018-Jan-08 16:19N 55°28' E 008°27'0 0.0
2018-Jan-08 15:58N 55°28' E 008°27'0 0.0
2018-Jan-08 15:31N 55°28' E 008°27'0 0.0
2018-Jan-08 15:01N 55°28' E 008°27'1 1.6
2018-Jan-08 14:30N 55°27' E 008°26'4 7.3
2018-Jan-08 14:01N 55°28' E 008°19'5 9.1
2018-Jan-08 13:31N 55°25' E 008°12'4 7.5
2018-Jan-08 13:00N 55°25' E 008°06'510.5
2018-Jan-08 12:31N 55°25' E 007°57'510.5
2018-Jan-08 12:00N 55°25' E 007°47'510.2
2018-Jan-08 11:30N 55°26' E 007°38'5 9.5
2018-Jan-08 11:00N 55°26' E 007°30'5 9.2
2018-Jan-08 10:31N 55°26' E 007°22'5 9.5
2018-Jan-08 10:00N 55°26' E 007°13'5 9.5
2018-Jan-08 09:31N 55°26' E 007°05'5 9.5
2018-Jan-08 09:00N 55°26' E 006°57'5 9.4
2018-Jan-08 08:30N 55°26' E 006°48'  
2018-Jan-01 15:01N 55°26' E 006°58'4 7.2
2018-Jan-01 14:30N 55°26' E 007°05'4 7.3
2018-Jan-01 14:01N 55°26' E 007°11'3 6.6
2018-Jan-01 13:30N 55°26' E 007°17'3 6.0
2018-Jan-01 13:01N 55°26' E 007°22'6 6.1
2018-Jan-01 12:01N 55°26' E 007°33'3 5.7
2018-Jan-01 11:30N 55°26' E 007°38'3 5.5
2018-Jan-01 11:01N 55°25' E 007°43'2 4.6
2018-Jan-01 10:30N 55°25' E 007°47'3 5.8
2018-Jan-01 10:01N 55°24' E 007°52'3 6.4
2018-Jan-01 09:31N 55°24' E 007°57'6 6.5
2018-Jan-01 08:31N 55°22' E 008°08'3 5.5
2018-Jan-01 08:01N 55°22' E 008°13'0 0.2
2018-Jan-01 07:31N 55°22' E 008°13'0 0.0
2018-Jan-01 07:01N 55°22' E 008°13'0 0.0
2018-Jan-01 06:01N 55°22' E 008°13'0 0.1
2018-Jan-01 05:30N 55°22' E 008°13'0 0.1
2018-Jan-01 05:01N 55°22' E 008°13'0 0.0
2018-Jan-01 04:01N 55°22' E 008°13'0 0.1
2018-Jan-01 03:31N 55°22' E 008°13'0 0.0
2018-Jan-01 03:01N 55°22' E 008°13'0 0.0
2018-Jan-01 02:31N 55°22' E 008°13'0 0.0
2018-Jan-01 02:00N 55°22' E 008°13'0 0.0
2018-Jan-01 01:30N 55°22' E 008°13'0 0.1
2018-Jan-01 00:31N 55°22' E 008°13'0 0.0
2017-Dec-31 21:00N 55°22' E 008°13'0 0.1
2017-Dec-31 20:31N 55°22' E 008°13'0 0.0
2017-Dec-31 20:01N 55°22' E 008°13'0 0.1
2017-Dec-31 19:31N 55°22' E 008°13'0 0.1
2017-Dec-31 19:01N 55°22' E 008°13'0 0.1
2017-Dec-31 18:31N 55°22' E 008°13'0 0.0
2017-Dec-31 18:01N 55°22' E 008°13'0 0.0
2017-Dec-31 17:31N 55°22' E 008°13'0 0.0
2017-Dec-31 17:01N 55°22' E 008°13'0 0.1
2017-Dec-31 16:31N 55°22' E 008°13'0 0.0
2017-Dec-31 16:01N 55°22' E 008°13'0 0.1
2017-Dec-31 15:31N 55°22' E 008°13'0 0.2
2017-Dec-31 15:01N 55°22' E 008°13'0 0.0
2017-Dec-31 14:30N 55°22' E 008°13'0 0.1
2017-Dec-31 14:01N 55°22' E 008°13'0 0.0
2017-Dec-31 13:30N 55°22' E 008°13'2 4.0
2017-Dec-31 13:01N 55°22' E 008°09'5 9.6
2017-Dec-31 12:31N 55°23' E 008°01'4 7.9
2017-Dec-31 12:00N 55°23' E 007°54'0 0.1
2017-Dec-31 11:30N 55°23' E 007°54'0 0.1
2017-Dec-31 11:01N 55°23' E 007°54'0 0.1
2017-Dec-31 10:31N 55°23' E 007°54'0 0.3
2017-Dec-31 10:00N 55°23' E 007°54'0 0.3
2017-Dec-31 09:31N 55°23' E 007°54'0 0.6
2017-Dec-31 09:00N 55°23' E 007°55'0 0.4
2017-Dec-31 08:30N 55°23' E 007°55'0 0.3
2017-Dec-31 08:01N 55°23' E 007°55'0 0.1
2017-Dec-31 07:30N 55°23' E 007°55'0 0.1
2017-Dec-31 07:00N 55°23' E 007°55'0 0.0
2017-Dec-31 06:30N 55°23' E 007°55'0 0.1
2017-Dec-31 06:01N 55°23' E 007°55'0 0.1
2017-Dec-31 05:30N 55°23' E 007°56'0 0.0
2017-Dec-31 05:01N 55°23' E 007°55'0 0.2
2017-Dec-31 04:31N 55°23' E 007°55'0 0.3
2017-Dec-31 04:00N 55°23' E 007°55'0 0.1
2017-Dec-31 03:30N 55°23' E 007°55'0 0.0
2017-Dec-31 03:00N 55°23' E 007°55'0 0.2
2017-Dec-31 02:31N 55°23' E 007°55'0 0.9
2017-Dec-31 02:01N 55°22' E 007°56'  
Track history (hours):
 
Tides and Currents Weather Stations Pressure Air Temp Water Temp Dewpoint Dewpoint Depression Visibility Wind Speed Wind Dir Waves Ship Positions

Gargano

Last reported at 2018-Jan-10 01:36 UTC. Time now 2018-Jan-22 18:24 UTC.
Position N 55°27' E 006°37'.
Warning: this ship's position is 12 days out of date.

Length 72 m; draft 5.2 m.

Type: Other ship. MMSI: 235362000.

Date/timePositionNaut miles runAvg speedWind from/ knotsBaromVisibWave heightAir tempDewpointWater temp
2018-Jan-10 01:36N 55°27' E 006°37'1 9.3
2018-Jan-10 01:30N 55°27' E 006°38'5 9.1
2018-Jan-10 01:01N 55°26' E 006°46'5 9.1
2018-Jan-10 00:30N 55°26' E 006°54'5 9.3
2018-Jan-10 00:00N 55°26' E 007°02'5 9.5
2018-Jan-09 23:30N 55°26' E 007°10'5 9.7
2018-Jan-09 23:01N 55°26' E 007°19'5 9.9
2018-Jan-09 22:31N 55°26' E 007°28'510.4
2018-Jan-09 22:01N 55°26' E 007°37'510.3
2018-Jan-09 21:31N 55°26' E 007°46'510.4
2018-Jan-09 21:00N 55°26' E 007°55'510.1
2018-Jan-09 20:31N 55°25' E 008°04'510.1
2018-Jan-09 20:01N 55°25' E 008°13'4 7.5
2018-Jan-09 19:30N 55°27' E 008°18'3 5.8
2018-Jan-09 19:01N 55°29' E 008°22'3 5.4
2018-Jan-09 18:30N 55°27' E 008°26'1 0.6
2018-Jan-09 17:34N 55°28' E 008°27'0 0.0
2018-Jan-09 17:16N 55°28' E 008°27'0 0.0
2018-Jan-09 16:31N 55°28' E 008°27'0 0.0
2018-Jan-09 16:16N 55°28' E 008°27'0 0.0
2018-Jan-09 15:37N 55°28' E 008°27'0 0.0
2018-Jan-09 15:22N 55°28' E 008°27'0 0.0
2018-Jan-09 14:52N 55°28' E 008°27'0 0.0
2018-Jan-09 14:16N 55°28' E 008°27'0 0.0
2018-Jan-09 13:19N 55°28' E 008°27'0 0.0
2018-Jan-09 12:49N 55°28' E 008°27'0 0.0
2018-Jan-09 12:22N 55°28' E 008°27'0 0.0
2018-Jan-09 11:34N 55°28' E 008°27'0 0.0
2018-Jan-09 11:25N 55°28' E 008°27'0 0.0
2018-Jan-09 10:22N 55°28' E 008°27'0 0.0
2018-Jan-09 09:40N 55°28' E 008°27'0 0.0
2018-Jan-09 09:25N 55°28' E 008°27'0 0.0
2018-Jan-09 08:52N 55°28' E 008°27'0 0.0
2018-Jan-09 08:10N 55°28' E 008°27'0 0.0
2018-Jan-09 07:55N 55°28' E 008°27'0 0.0
2018-Jan-09 07:25N 55°28' E 008°27'0 0.0
2018-Jan-09 06:55N 55°28' E 008°27'0 0.0
2018-Jan-09 06:28N 55°28' E 008°27'0 0.0
2018-Jan-09 05:55N 55°28' E 008°27'0 0.0
2018-Jan-09 05:22N 55°28' E 008°27'0 0.0
2018-Jan-09 04:55N 55°28' E 008°27'0 0.0
2018-Jan-09 04:10N 55°28' E 008°27'0 0.0
2018-Jan-09 03:58N 55°28' E 008°27'0 0.0
2018-Jan-09 03:13N 55°28' E 008°27'0 0.0
2018-Jan-09 02:58N 55°28' E 008°27'0 0.0
2018-Jan-09 02:13N 55°28' E 008°27'0 0.0
2018-Jan-09 01:58N 55°28' E 008°27'0 0.0
2018-Jan-09 01:16N 55°28' E 008°27'0 0.0
2018-Jan-09 00:58N 55°28' E 008°27'0 0.0
2018-Jan-09 00:13N 55°28' E 008°27'0 0.0
2018-Jan-08 23:46N 55°28' E 008°27'0 0.0
2018-Jan-08 23:22N 55°28' E 008°27'0 0.0
2018-Jan-08 22:58N 55°28' E 008°27'0 0.0
2018-Jan-08 22:28N 55°28' E 008°27'0 0.0
2018-Jan-08 21:58N 55°28' E 008°27'0 0.0
2018-Jan-08 21:22N 55°28' E 008°27'0 0.0
2018-Jan-08 20:47N 55°28' E 008°27'0 0.0
2018-Jan-08 20:16N 55°28' E 008°27'0 0.0
2018-Jan-08 19:40N 55°28' E 008°27'0 0.0
2018-Jan-08 19:30N 55°28' E 008°27'0 0.0
2018-Jan-08 18:49N 55°28' E 008°27'0 0.0
2018-Jan-08 18:25N 55°28' E 008°27'0 0.0
2018-Jan-08 17:49N 55°28' E 008°27'0 0.0
2018-Jan-08 17:19N 55°28' E 008°27'0 0.0
2018-Jan-08 16:48N 55°28' E 008°27'0 0.0
2018-Jan-08 16:19N 55°28' E 008°27'0 0.0
2018-Jan-08 15:58N 55°28' E 008°27'0 0.0
2018-Jan-08 15:31N 55°28' E 008°27'0 0.0
2018-Jan-08 15:01N 55°28' E 008°27'1 1.6
2018-Jan-08 14:30N 55°27' E 008°26'4 7.3
2018-Jan-08 14:01N 55°28' E 008°19'5 9.1
2018-Jan-08 13:31N 55°25' E 008°12'4 7.5
2018-Jan-08 13:00N 55°25' E 008°06'510.5
2018-Jan-08 12:31N 55°25' E 007°57'510.5
2018-Jan-08 12:00N 55°25' E 007°47'510.2
2018-Jan-08 11:30N 55°26' E 007°38'5 9.5
2018-Jan-08 11:00N 55°26' E 007°30'5 9.2
2018-Jan-08 10:31N 55°26' E 007°22'5 9.5
2018-Jan-08 10:00N 55°26' E 007°13'5 9.5
2018-Jan-08 09:31N 55°26' E 007°05'5 9.5
2018-Jan-08 09:00N 55°26' E 006°57'5 9.4
2018-Jan-08 08:30N 55°26' E 006°48'  
2018-Jan-01 15:01N 55°26' E 006°58'4 7.2
2018-Jan-01 14:30N 55°26' E 007°05'4 7.3
2018-Jan-01 14:01N 55°26' E 007°11'3 6.6
2018-Jan-01 13:30N 55°26' E 007°17'3 6.0
2018-Jan-01 13:01N 55°26' E 007°22'6 6.1
2018-Jan-01 12:01N 55°26' E 007°33'3 5.7
2018-Jan-01 11:30N 55°26' E 007°38'3 5.5
2018-Jan-01 11:01N 55°25' E 007°43'2 4.6
2018-Jan-01 10:30N 55°25' E 007°47'3 5.8
2018-Jan-01 10:01N 55°24' E 007°52'3 6.4
2018-Jan-01 09:31N 55°24' E 007°57'6 6.5
2018-Jan-01 08:31N 55°22' E 008°08'3 5.5
2018-Jan-01 08:01N 55°22' E 008°13'0 0.2
2018-Jan-01 07:31N 55°22' E 008°13'0 0.0
2018-Jan-01 07:01N 55°22' E 008°13'0 0.0
2018-Jan-01 06:01N 55°22' E 008°13'0 0.1
2018-Jan-01 05:30N 55°22' E 008°13'0 0.1
2018-Jan-01 05:01N 55°22' E 008°13'0 0.0
2018-Jan-01 04:01N 55°22' E 008°13'0 0.1
2018-Jan-01 03:31N 55°22' E 008°13'0 0.0
2018-Jan-01 03:01N 55°22' E 008°13'0 0.0
2018-Jan-01 02:31N 55°22' E 008°13'0 0.0
2018-Jan-01 02:00N 55°22' E 008°13'0 0.0
2018-Jan-01 01:30N 55°22' E 008°13'0 0.1
2018-Jan-01 00:31N 55°22' E 008°13'0 0.0
2017-Dec-31 21:00N 55°22' E 008°13'0 0.1
2017-Dec-31 20:31N 55°22' E 008°13'0 0.0
2017-Dec-31 20:01N 55°22' E 008°13'0 0.1
2017-Dec-31 19:31N 55°22' E 008°13'0 0.1
2017-Dec-31 19:01N 55°22' E 008°13'0 0.1
2017-Dec-31 18:31N 55°22' E 008°13'0 0.0
2017-Dec-31 18:01N 55°22' E 008°13'0 0.0
2017-Dec-31 17:31N 55°22' E 008°13'0 0.0
2017-Dec-31 17:01N 55°22' E 008°13'0 0.1
2017-Dec-31 16:31N 55°22' E 008°13'0 0.0
2017-Dec-31 16:01N 55°22' E 008°13'0 0.1
2017-Dec-31 15:31N 55°22' E 008°13'0 0.2
2017-Dec-31 15:01N 55°22' E 008°13'0 0.0
2017-Dec-31 14:30N 55°22' E 008°13'0 0.1
2017-Dec-31 14:01N 55°22' E 008°13'0 0.0
2017-Dec-31 13:30N 55°22' E 008°13'2 4.0
2017-Dec-31 13:01N 55°22' E 008°09'5 9.6
2017-Dec-31 12:31N 55°23' E 008°01'4 7.9
2017-Dec-31 12:00N 55°23' E 007°54'0 0.1
2017-Dec-31 11:30N 55°23' E 007°54'0 0.1
2017-Dec-31 11:01N 55°23' E 007°54'0 0.1
2017-Dec-31 10:31N 55°23' E 007°54'0 0.3
2017-Dec-31 10:00N 55°23' E 007°54'0 0.3
2017-Dec-31 09:31N 55°23' E 007°54'0 0.6
2017-Dec-31 09:00N 55°23' E 007°55'0 0.4
2017-Dec-31 08:30N 55°23' E 007°55'0 0.3
2017-Dec-31 08:01N 55°23' E 007°55'0 0.1
2017-Dec-31 07:30N 55°23' E 007°55'0 0.1
2017-Dec-31 07:00N 55°23' E 007°55'0 0.0
2017-Dec-31 06:30N 55°23' E 007°55'0 0.1
2017-Dec-31 06:01N 55°23' E 007°55'0 0.1
2017-Dec-31 05:30N 55°23' E 007°56'0 0.0
2017-Dec-31 05:01N 55°23' E 007°55'0 0.2
2017-Dec-31 04:31N 55°23' E 007°55'0 0.3
2017-Dec-31 04:00N 55°23' E 007°55'0 0.1
2017-Dec-31 03:30N 55°23' E 007°55'0 0.0
2017-Dec-31 03:00N 55°23' E 007°55'0 0.2
2017-Dec-31 02:31N 55°23' E 007°55'0 0.9
2017-Dec-31 02:01N 55°22' E 007°56'  

Dump ship's entire track history